createdAt,value
2018-03-28T00:00:47.503Z,20.63
2018-03-28T00:03:13.871Z,20.60
2018-03-28T00:05:40.273Z,20.62
2018-03-28T00:08:06.604Z,20.63
2018-03-28T00:10:33.092Z,20.66
2018-03-28T00:12:59.739Z,20.64
2018-03-28T00:15:26.158Z,20.65
2018-03-28T00:17:52.552Z,20.61
2018-03-28T00:20:19.019Z,20.62
2018-03-28T00:22:45.414Z,20.55
2018-03-28T00:25:11.822Z,20.59
2018-03-28T00:27:38.143Z,20.59
2018-03-28T00:30:04.482Z,20.60
2018-03-28T00:32:31.022Z,20.61
2018-03-28T00:34:57.385Z,20.58
2018-03-28T00:37:23.807Z,20.55
2018-03-28T00:39:50.169Z,20.54
2018-03-28T00:42:16.495Z,20.49
2018-03-28T00:44:42.929Z,20.49
2018-03-28T00:47:09.319Z,20.55
2018-03-28T00:49:35.655Z,20.56
2018-03-28T00:52:01.990Z,20.55
2018-03-28T00:54:28.392Z,20.55
2018-03-28T00:56:54.730Z,20.53
2018-03-28T00:59:21.174Z,20.49
2018-03-28T01:01:47.511Z,20.47
2018-03-28T01:04:13.894Z,20.65
2018-03-28T01:06:40.378Z,20.50
2018-03-28T01:09:06.859Z,20.37
2018-03-28T01:11:33.196Z,20.35
2018-03-28T01:13:59.553Z,20.30
2018-03-28T01:16:25.869Z,20.25
2018-03-28T01:18:52.241Z,20.24
2018-03-28T01:21:18.601Z,20.28
2018-03-28T01:23:44.975Z,20.27
2018-03-28T01:26:11.316Z,20.27
2018-03-28T01:28:37.718Z,20.22
2018-03-28T01:31:04.112Z,20.26
2018-03-28T01:33:30.505Z,20.37
2018-03-28T01:35:56.901Z,20.36
2018-03-28T01:38:23.227Z,20.39
2018-03-28T01:40:49.591Z,20.36
2018-03-28T01:43:16.026Z,20.41
2018-03-28T01:45:42.405Z,20.43
2018-03-28T01:48:08.904Z,20.45
2018-03-28T01:50:35.222Z,20.53
2018-03-28T01:53:01.583Z,20.48
2018-03-28T01:55:27.990Z,20.51
2018-03-28T01:57:54.333Z,20.51
2018-03-28T02:00:20.792Z,20.54
2018-03-28T02:02:47.156Z,20.54
2018-03-28T02:05:13.522Z,20.53
2018-03-28T02:07:40.010Z,20.61
2018-03-28T02:10:06.391Z,20.55
2018-03-28T02:12:32.723Z,20.58
2018-03-28T02:14:59.071Z,20.62
2018-03-28T02:17:25.557Z,20.58
2018-03-28T02:19:51.962Z,20.55
2018-03-28T02:22:18.281Z,20.63
2018-03-28T02:24:44.609Z,20.60
2018-03-28T02:27:11.051Z,20.60
2018-03-28T02:29:37.617Z,20.65
2018-03-28T02:32:04.024Z,20.62
2018-03-28T02:34:30.357Z,20.66
2018-03-28T02:36:56.687Z,20.62
2018-03-28T02:39:23.055Z,20.66
2018-03-28T02:41:49.447Z,20.65
2018-03-28T02:44:16.067Z,20.68
2018-03-28T02:46:42.561Z,20.68
2018-03-28T02:49:08.913Z,20.64
2018-03-28T02:51:35.270Z,20.65
2018-03-28T02:54:01.602Z,20.72
2018-03-28T02:56:27.982Z,20.63
2018-03-28T02:58:54.395Z,20.74
2018-03-28T03:01:20.746Z,20.84
2018-03-28T03:03:47.120Z,20.75
2018-03-28T03:06:13.509Z,20.84
2018-03-28T03:08:39.872Z,20.93
2018-03-28T03:11:06.218Z,20.91
2018-03-28T03:13:32.538Z,20.96
2018-03-28T03:15:58.913Z,20.99
2018-03-28T03:18:25.250Z,21.00
2018-03-28T03:20:51.574Z,21.09
2018-03-28T03:23:18.122Z,21.17
2018-03-28T03:25:44.449Z,21.19
2018-03-28T03:28:10.778Z,21.14
2018-03-28T03:30:37.115Z,21.13
2018-03-28T03:33:03.575Z,21.19
2018-03-28T03:35:29.915Z,21.19
2018-03-28T03:37:56.351Z,21.23
2018-03-28T03:40:22.684Z,21.23
2018-03-28T03:42:49.001Z,21.33
2018-03-28T03:45:15.365Z,21.33
2018-03-28T03:47:41.802Z,21.27
2018-03-28T03:50:08.278Z,21.27
2018-03-28T03:52:34.697Z,21.36
2018-03-28T03:55:01.032Z,21.40
2018-03-28T03:57:27.419Z,21.44
2018-03-28T03:59:53.807Z,21.40
2018-03-28T04:02:20.170Z,21.39
2018-03-28T04:04:46.526Z,21.48
2018-03-28T04:07:12.850Z,21.45
2018-03-28T04:09:39.210Z,21.47
2018-03-28T04:12:05.538Z,21.46
2018-03-28T04:14:31.945Z,21.53
2018-03-28T04:16:58.285Z,21.58
2018-03-28T04:19:24.663Z,21.54
2018-03-28T04:21:51.035Z,21.51
2018-03-28T04:24:17.364Z,21.55
2018-03-28T04:26:43.793Z,21.60
2018-03-28T04:29:10.260Z,21.63
2018-03-28T04:31:36.591Z,21.60
2018-03-28T04:34:02.912Z,21.62
2018-03-28T04:36:29.285Z,21.58
2018-03-28T04:38:55.767Z,21.67
2018-03-28T04:41:22.302Z,21.64
2018-03-28T04:43:48.715Z,21.72
2018-03-28T04:46:15.122Z,21.73
2018-03-28T04:48:41.507Z,21.76
2018-03-28T04:51:07.959Z,21.81
2018-03-28T04:53:34.416Z,21.85
2018-03-28T04:56:00.738Z,21.87
2018-03-28T04:58:27.163Z,21.87
2018-03-28T05:00:53.492Z,21.93
2018-03-28T05:03:19.835Z,21.97
2018-03-28T05:05:46.232Z,21.96
2018-03-28T05:08:12.629Z,21.91
2018-03-28T05:10:39.059Z,21.98
2018-03-28T05:13:05.387Z,21.96
2018-03-28T05:15:31.721Z,21.98
2018-03-28T05:17:59.135Z,22.18
2018-03-28T05:20:25.764Z,22.02
2018-03-28T05:22:52.167Z,22.01
2018-03-28T05:25:18.499Z,22.03
2018-03-28T05:27:44.897Z,22.10
2018-03-28T05:30:11.375Z,22.17
2018-03-28T05:32:38.083Z,22.40
2018-03-28T05:37:25.960Z,22.58
2018-03-28T05:39:54.717Z,22.54
2018-03-28T05:42:21.867Z,22.58
2018-03-28T05:44:48.233Z,22.69
2018-03-28T05:47:14.574Z,22.83
2018-03-28T05:49:41.047Z,22.96
2018-03-28T05:52:08.486Z,22.97
2018-03-28T05:54:34.930Z,23.03
2018-03-28T05:57:01.396Z,23.13
2018-03-28T05:59:27.831Z,23.11
2018-03-28T06:01:54.285Z,23.20
2018-03-28T06:04:20.661Z,23.26
2018-03-28T06:06:47.209Z,23.36
2018-03-28T06:09:13.896Z,23.40
2018-03-28T06:11:40.398Z,23.44
2018-03-28T06:14:07.519Z,23.50
2018-03-28T06:16:34.036Z,23.56
2018-03-28T06:19:00.537Z,23.62
2018-03-28T06:21:27.012Z,23.66
2018-03-28T06:23:53.415Z,23.81
2018-03-28T06:26:19.758Z,23.85
2018-03-28T06:28:46.210Z,23.90
2018-03-28T06:31:12.728Z,23.90
2018-03-28T06:33:39.221Z,24.00
2018-03-28T06:36:05.757Z,23.97
2018-03-28T06:38:32.228Z,24.05
2018-03-28T06:40:58.732Z,24.08
2018-03-28T06:43:25.191Z,24.14
2018-03-28T06:45:51.676Z,24.23
2018-03-28T06:48:18.162Z,24.20
2018-03-28T06:50:44.597Z,24.16
2018-03-28T06:53:11.271Z,24.23
2018-03-28T06:55:37.678Z,24.30
2018-03-28T06:58:04.101Z,24.27
2018-03-28T07:00:38.685Z,24.26
2018-03-28T07:03:05.183Z,24.33
2018-03-28T07:05:31.909Z,24.34
2018-03-28T07:07:58.760Z,24.46
2018-03-28T07:10:25.409Z,24.51
2018-03-28T07:12:52.207Z,24.46
2018-03-28T07:15:19.088Z,24.61
2018-03-28T07:17:45.492Z,24.55
2018-03-28T07:20:11.920Z,24.59
2018-03-28T07:22:38.421Z,24.72
2018-03-28T07:25:04.796Z,24.70
2018-03-28T07:27:31.533Z,24.73
2018-03-28T07:29:58.236Z,24.83
2018-03-28T07:32:24.649Z,24.87
2018-03-28T07:34:51.485Z,24.83
2018-03-28T07:37:18.227Z,24.86
2018-03-28T07:39:44.628Z,24.83
2018-03-28T07:42:11.097Z,24.83
2018-03-28T07:44:37.622Z,24.84
2018-03-28T07:47:04.594Z,24.84
2018-03-28T07:49:32.216Z,24.80
2018-03-28T07:51:58.833Z,24.89
2018-03-28T07:54:25.684Z,24.89
2018-03-28T07:56:52.366Z,24.91
2018-03-28T07:59:19.266Z,24.89
2018-03-28T08:01:46.656Z,24.92
2018-03-28T08:04:13.345Z,24.93
2018-03-28T08:06:40.523Z,24.98
2018-03-28T08:09:09.943Z,24.91
2018-03-28T08:11:36.830Z,24.90
2018-03-28T08:14:04.059Z,25.02
2018-03-28T08:16:30.972Z,24.92
2018-03-28T08:18:57.879Z,24.92
2018-03-28T08:21:24.523Z,25.02
2018-03-28T08:23:51.365Z,24.94
2018-03-28T08:26:17.905Z,24.71
2018-03-28T08:28:44.834Z,24.88
2018-03-28T08:31:11.402Z,24.84
2018-03-28T08:33:38.253Z,24.91
2018-03-28T08:36:04.793Z,24.89
2018-03-28T08:38:31.558Z,24.84
2018-03-28T08:40:58.064Z,24.89
2018-03-28T08:43:26.352Z,24.85
2018-03-28T08:45:56.719Z,24.91
2018-03-28T08:48:23.197Z,24.77
2018-03-28T08:50:49.783Z,24.89
2018-03-28T08:53:16.186Z,24.83
2018-03-28T08:55:43.021Z,24.84
2018-03-28T08:58:09.786Z,24.86
2018-03-28T09:00:36.194Z,24.86
2018-03-28T09:03:02.646Z,24.70
2018-03-28T09:05:30.612Z,24.85
2018-03-28T09:07:57.299Z,24.80
2018-03-28T09:10:23.895Z,24.83
2018-03-28T09:12:50.474Z,24.83
2018-03-28T09:15:16.945Z,24.78
2018-03-28T09:17:43.732Z,24.77
2018-03-28T09:20:10.252Z,24.79
2018-03-28T09:22:37.071Z,24.79
2018-03-28T09:25:03.745Z,24.73
2018-03-28T09:27:30.508Z,24.75
2018-03-28T09:29:57.202Z,24.73
2018-03-28T09:32:24.230Z,24.84
2018-03-28T09:34:51.104Z,24.82
2018-03-28T09:37:18.049Z,24.86
2018-03-28T09:39:44.593Z,24.88
2018-03-28T09:42:11.134Z,24.94
2018-03-28T09:44:39.352Z,24.93
2018-03-28T09:47:06.047Z,24.88
2018-03-28T09:49:32.590Z,24.91
2018-03-28T09:51:59.266Z,24.88
2018-03-28T09:54:25.946Z,24.87
2018-03-28T09:56:52.600Z,24.83
2018-03-28T09:59:19.948Z,24.80
2018-03-28T10:01:47.473Z,24.55
2018-03-28T10:04:13.933Z,24.66
2018-03-28T10:06:40.803Z,24.75
2018-03-28T10:09:07.570Z,24.65
2018-03-28T10:11:34.824Z,24.77
2018-03-28T10:32:52.260Z,24.43
2018-03-28T10:35:19.154Z,24.44
2018-03-28T10:37:46.104Z,24.38
2018-03-28T11:04:07.984Z,25.00
2018-03-28T11:06:35.646Z,24.95
2018-03-28T11:09:02.820Z,24.66
2018-03-28T11:11:31.261Z,24.64
2018-03-28T11:13:59.073Z,24.84
2018-03-28T11:16:26.597Z,24.59
2018-03-28T11:18:53.997Z,24.29
2018-03-28T11:21:26.016Z,24.56
2018-03-28T11:23:55.730Z,24.74
2018-03-28T11:26:24.728Z,24.40
2018-03-28T11:28:59.329Z,24.47
2018-03-28T11:31:26.448Z,24.29
2018-03-28T11:36:27.726Z,24.82
2018-03-28T11:38:54.814Z,24.89
2018-03-28T11:41:23.111Z,24.83
2018-03-28T11:43:50.565Z,24.40
2018-03-28T11:46:23.932Z,24.51
2018-03-28T12:03:40.697Z,24.76
2018-03-28T12:47:07.554Z,24.42
2018-03-28T12:49:34.920Z,24.53
2018-03-28T12:52:02.019Z,24.19
2018-03-28T12:54:29.922Z,24.05
2018-03-28T12:56:57.656Z,24.03
2018-03-28T12:59:25.758Z,24.14
2018-03-28T13:01:53.052Z,24.28
2018-03-28T13:04:21.178Z,24.13
2018-03-28T13:24:31.619Z,24.68
2018-03-28T13:26:58.921Z,24.49
2018-03-28T13:29:38.768Z,24.64
2018-03-28T13:32:08.032Z,24.45
2018-03-28T13:34:36.696Z,24.57
2018-03-28T13:37:06.360Z,24.53
2018-03-28T14:13:51.859Z,24.41
2018-03-28T14:16:18.491Z,24.33
2018-03-28T14:18:44.979Z,24.42
2018-03-28T14:21:11.786Z,24.32
2018-03-28T14:23:38.813Z,24.57
2018-03-28T14:26:05.737Z,24.57
2018-03-28T14:28:32.198Z,24.45
2018-03-28T14:30:58.539Z,24.44
2018-03-28T14:33:24.914Z,24.25
2018-03-28T14:35:51.316Z,24.23
2018-03-28T14:38:17.668Z,24.20
2018-03-28T14:40:44.052Z,24.28
2018-03-28T14:43:10.433Z,24.26
2018-03-28T14:45:36.813Z,24.30
2018-03-28T14:48:03.166Z,24.36
2018-03-28T14:50:29.603Z,24.32
2018-03-28T14:52:55.958Z,24.33
2018-03-28T14:55:22.327Z,23.95
2018-03-28T14:57:48.792Z,23.87
2018-03-28T15:00:15.137Z,24.19
2018-03-28T15:02:41.495Z,24.14
2018-03-28T15:05:07.825Z,24.18
2018-03-28T15:07:34.229Z,24.25
2018-03-28T15:10:00.570Z,23.94
2018-03-28T15:12:26.937Z,23.98
2018-03-28T15:14:53.337Z,23.92
2018-03-28T15:17:19.666Z,23.91
2018-03-28T15:19:46.013Z,23.99
2018-03-28T15:22:12.477Z,23.94
2018-03-28T15:24:38.918Z,23.86
2018-03-28T15:27:06.550Z,23.79
2018-03-28T15:29:33.207Z,23.73
2018-03-28T15:31:59.796Z,23.69
2018-03-28T15:34:27.741Z,23.85
2018-03-28T15:36:54.190Z,23.85
2018-03-28T15:39:20.675Z,23.95
2018-03-28T15:41:47.160Z,23.91
2018-03-28T15:44:13.576Z,23.91
2018-03-28T15:46:39.965Z,23.83
2018-03-28T15:49:06.503Z,23.85
2018-03-28T15:51:32.940Z,23.92
2018-03-28T15:53:59.435Z,23.85
2018-03-28T15:56:25.834Z,23.70
2018-03-28T15:58:52.461Z,23.62
2018-03-28T16:01:26.849Z,23.59
2018-03-28T16:03:53.190Z,23.57
2018-03-28T16:06:19.574Z,23.84
2018-03-28T16:08:45.972Z,23.80
2018-03-28T16:11:12.323Z,23.80
2018-03-28T16:13:38.707Z,23.72
2018-03-28T16:16:05.022Z,23.61
2018-03-28T16:18:31.431Z,23.70
2018-03-28T16:20:57.740Z,23.71
2018-03-28T16:23:24.172Z,23.76
2018-03-28T16:25:50.541Z,23.80
2018-03-28T16:28:16.960Z,23.79
2018-03-28T16:30:43.331Z,23.75
2018-03-28T16:33:10.203Z,23.73
2018-03-28T16:35:36.607Z,23.84
2018-03-28T16:38:02.960Z,23.76
2018-03-28T16:40:29.412Z,23.65
2018-03-28T16:42:55.851Z,23.60
2018-03-28T16:45:22.294Z,23.58
2018-03-28T16:47:48.737Z,23.62
2018-03-28T16:50:15.143Z,23.58
2018-03-28T16:52:41.606Z,23.53
2018-03-28T16:55:08.064Z,23.53
2018-03-28T16:57:34.429Z,23.55
2018-03-28T17:00:00.948Z,23.51
2018-03-28T17:02:27.273Z,23.43
2018-03-28T17:04:53.600Z,23.23
2018-03-28T17:07:19.956Z,23.22
2018-03-28T17:09:46.273Z,23.17
2018-03-28T17:12:12.719Z,23.09
2018-03-28T17:14:39.129Z,23.05
2018-03-28T17:17:05.498Z,23.07
2018-03-28T17:19:31.913Z,23.03
2018-03-28T17:21:58.239Z,22.99
2018-03-28T17:24:24.689Z,22.92
2018-03-28T17:26:51.046Z,22.97
2018-03-28T17:29:17.425Z,22.92
2018-03-28T17:31:43.756Z,22.95
2018-03-28T17:34:10.172Z,22.91
2018-03-28T17:36:36.502Z,22.88
2018-03-28T17:39:02.879Z,22.84
2018-03-28T17:41:29.206Z,22.84
2018-03-28T17:43:55.609Z,22.78
2018-03-28T17:46:21.960Z,22.82
2018-03-28T17:48:48.330Z,22.77
2018-03-28T17:51:14.662Z,22.76
2018-03-28T17:53:41.698Z,22.68
2018-03-28T17:56:08.151Z,22.64
2018-03-28T17:58:34.488Z,22.61
2018-03-28T18:01:00.836Z,22.54
2018-03-28T18:03:27.191Z,22.54
2018-03-28T18:05:53.557Z,22.44
2018-03-28T18:08:19.918Z,22.36
2018-03-28T18:10:46.450Z,22.37
2018-03-28T18:13:12.818Z,22.32
2018-03-28T18:15:39.172Z,22.21
2018-03-28T18:18:05.599Z,22.25
2018-03-28T18:20:31.941Z,22.23
2018-03-28T18:22:58.307Z,22.11
2018-03-28T18:25:24.657Z,22.08
2018-03-28T18:27:51.010Z,22.01
2018-03-28T18:30:17.394Z,22.01
2018-03-28T18:32:43.790Z,21.88
2018-03-28T18:35:10.211Z,21.81
2018-03-28T18:37:36.526Z,21.88
2018-03-28T18:40:02.893Z,21.88
2018-03-28T18:42:29.254Z,21.93
2018-03-28T18:44:55.608Z,22.08
2018-03-28T18:47:21.983Z,22.13
2018-03-28T18:49:48.336Z,22.11
2018-03-28T18:52:14.768Z,22.10
2018-03-28T18:54:41.106Z,22.07
2018-03-28T18:57:07.635Z,22.09
2018-03-28T18:59:34.124Z,22.09
2018-03-28T19:02:00.460Z,22.07
2018-03-28T19:04:26.787Z,22.09
2018-03-28T19:06:53.210Z,22.08
2018-03-28T19:09:19.552Z,22.02
2018-03-28T19:11:45.930Z,22.01
2018-03-28T19:14:12.367Z,21.97
2018-03-28T19:16:38.748Z,21.98
2018-03-28T19:19:05.067Z,21.96
2018-03-28T19:21:31.531Z,21.94
2018-03-28T19:23:57.970Z,21.96
2018-03-28T19:26:24.361Z,21.94
2018-03-28T19:28:50.776Z,21.91
2018-03-28T19:31:17.237Z,21.85
2018-03-28T19:33:43.565Z,21.88
2018-03-28T19:36:09.970Z,21.88
2018-03-28T19:38:36.358Z,21.85
2018-03-28T19:41:02.741Z,21.85
2018-03-28T19:43:29.218Z,21.84
2018-03-28T19:45:55.612Z,21.80
2018-03-28T19:48:21.943Z,21.79
2018-03-28T19:50:48.271Z,21.78
2018-03-28T19:53:14.824Z,21.77
2018-03-28T19:55:41.174Z,21.76
2018-03-28T19:58:07.583Z,21.74
2018-03-28T20:00:33.942Z,21.72
2018-03-28T20:03:00.304Z,21.68
2018-03-28T20:05:27.617Z,21.69
2018-03-28T20:07:54.117Z,21.68
2018-03-28T20:10:20.503Z,21.65
2018-03-28T20:12:46.909Z,21.66
2018-03-28T20:15:13.290Z,21.66
2018-03-28T20:17:39.649Z,21.60
2018-03-28T20:20:06.004Z,21.63
2018-03-28T20:22:32.321Z,21.59
2018-03-28T20:24:58.805Z,21.63
2018-03-28T20:27:25.384Z,21.57
2018-03-28T20:29:52.020Z,21.55
2018-03-28T20:32:18.427Z,21.55
2018-03-28T20:34:44.826Z,21.47
2018-03-28T20:37:11.950Z,21.55
2018-03-28T20:39:38.492Z,21.52
2018-03-28T20:42:04.823Z,21.51
2018-03-28T20:44:31.264Z,21.47
2018-03-28T20:46:57.773Z,21.48
2018-03-28T20:49:24.350Z,21.48
2018-03-28T20:51:50.757Z,21.45
2018-03-28T20:54:17.196Z,21.46
2018-03-28T20:56:43.820Z,21.42
2018-03-28T21:12:29.504Z,21.37
2018-03-28T21:14:55.982Z,21.37
2018-03-28T21:17:22.613Z,21.33
2018-03-28T21:19:49.058Z,21.33
2018-03-28T21:22:15.499Z,21.32
2018-03-28T21:24:41.954Z,21.27
2018-03-28T21:27:08.340Z,21.32
2018-03-28T21:29:34.715Z,21.23
2018-03-28T21:32:01.208Z,21.22
2018-03-28T21:34:27.675Z,21.25
2018-03-28T21:36:54.036Z,21.28
2018-03-28T21:39:20.408Z,21.27
2018-03-28T21:41:46.766Z,21.23
2018-03-28T21:44:13.174Z,21.20
2018-03-28T21:46:39.531Z,21.20
2018-03-28T21:49:06.036Z,21.19
2018-03-28T21:51:32.421Z,21.18
2018-03-28T21:53:58.773Z,21.17
2018-03-28T21:56:25.230Z,21.18
2018-03-28T21:58:51.613Z,21.19
2018-03-28T22:01:17.953Z,21.13
2018-03-28T22:03:44.349Z,21.17
2018-03-28T22:06:10.736Z,21.16
2018-03-28T22:08:37.274Z,21.18
2018-03-28T22:11:03.699Z,21.16
2018-03-28T22:13:30.084Z,21.13
2018-03-28T22:15:56.423Z,21.16
2018-03-28T22:18:22.797Z,21.11
2018-03-28T22:20:49.126Z,21.15
2018-03-28T22:23:15.622Z,21.15
2018-03-28T22:25:41.916Z,21.11
2018-03-28T22:28:08.433Z,21.11
2018-03-28T22:30:34.757Z,21.09
2018-03-28T22:33:01.945Z,21.08
2018-03-28T22:35:28.309Z,21.06
2018-03-28T22:37:55.040Z,21.03
2018-03-28T22:40:21.393Z,20.99
2018-03-28T22:42:47.875Z,20.96
2018-03-28T22:45:14.238Z,21.00
2018-03-28T22:47:40.808Z,20.98
2018-03-28T22:50:07.138Z,20.94
2018-03-28T22:52:33.570Z,20.95
2018-03-28T22:54:59.942Z,20.98
2018-03-28T22:57:26.342Z,20.95
2018-03-28T22:59:52.800Z,20.92
2018-03-28T23:02:19.358Z,20.98
2018-03-28T23:04:45.747Z,20.93
2018-03-28T23:07:12.071Z,20.87
2018-03-28T23:09:38.476Z,20.90
2018-03-28T23:12:05.565Z,20.90
2018-03-28T23:14:31.887Z,20.87
2018-03-28T23:16:58.456Z,20.90
2018-03-28T23:19:24.951Z,20.87
2018-03-28T23:21:51.445Z,20.86
2018-03-28T23:24:17.775Z,20.88
2018-03-28T23:26:44.109Z,20.90
2018-03-28T23:29:10.500Z,20.87
2018-03-28T23:31:37.102Z,20.83
2018-03-28T23:34:03.540Z,20.83
2018-03-28T23:36:29.871Z,20.83
2018-03-28T23:38:57.018Z,20.77
2018-03-28T23:41:23.578Z,20.75
2018-03-28T23:43:49.935Z,20.70
2018-03-28T23:46:16.374Z,20.68
2018-03-28T23:48:42.751Z,20.74
2018-03-28T23:51:09.117Z,20.74
2018-03-28T23:53:35.443Z,20.77
2018-03-28T23:56:01.883Z,20.74
2018-03-28T23:58:28.282Z,20.73
